• Join FlightAware (Why Join?)
  • Login
  • US Flag 
03:52AM EST


 

Airport Tracker/Info


-or-


 

Live Flight TrackerFlight Track Log ✈ N776MA ✈ 21-Jul-2013 ✈ KMTN - KTOL

Flight Track Log - Related Links

Times and Time Zones

All times are in EDT time to prevent confusion due to time zone crossing. See the N776MA flight status page for this flight to view local times or setup timezone preferences in your user account.

Time Position Orientation Groundspeed Altitude Reporting Facility
EDT Latitude Longitude Course Direction KTS MPH feet Rate Location/Type
11:28AM 39.3500 -76.4500 270° West 200 230 1,200  Level Potomac TRACON
11:29AM 39.3500 -76.5167 270° West 248 285 3,100 2,520 Climbing Potomac TRACON
11:30AM 39.3167 -76.6000 243° Southwest 265 305 6,300 2,820 Climbing Potomac TRACON
11:31AM 39.2833 -76.7000 247° West 278 320 8,800 1,800 Climbing Potomac TRACON
11:32AM 39.2833 -76.8000 270° West 300 345 9,900 1,500 Climbing Potomac TRACON
11:34AM 39.2953 -76.9808 275° West 334 384 12,700 2,040 Climbing Washington Center
11:35AM 39.3272 -77.0967 290° West 334 384 15,300 2,160 Climbing Washington Center
11:36AM 39.3569 -77.2128 288° West 339 390 17,100 840 Climbing Washington Center
11:37AM 39.3886 -77.3317 289° West 346 398 17,100 780 Level Washington Center
11:38AM 39.4200 -77.4533 289° West 352 405 18,700 1,800 Climbing Washington Center
11:39AM 39.4536 -77.5750 290° West 352 405 20,700 1,860 Climbing Washington Center
11:40AM 39.4889 -77.6997 290° West 357 411 22,500 1,620 Climbing Washington Center
11:41AM 39.5283 -77.8300 291° West 372 428 24,000 1,560 Climbing Washington Center
11:42AM 39.5675 -77.9606 291° West 384 442 25,600 1,680 Climbing Washington Center
11:43AM 39.6286 -78.1600 292° West 414 476 27,900 1,560 Climbing Cleveland Center
11:44AM 39.6667 -78.2881 291° West 420 483 29,300 1,440 Climbing Cleveland Center
11:45AM 39.7069 -78.4269 291° West 426 490 30,800 1,320 Climbing Cleveland Center
11:46AM 39.7492 -78.5742 290° West 426 490 32,000 600 Climbing Cleveland Center
11:47AM 39.7892 -78.7189 290° West 426 490 32,000  Level Cleveland Center
11:48AM 39.8311 -78.8639 291° West 426 490 32,000 420 Level Cleveland Center
11:49AM 39.8814 -79.0219 293° West 426 490 32,900 1,260 Climbing Cleveland Center
11:50AM 39.9228 -79.1672 290° West 426 490 34,600 1,500 Climbing Cleveland Center
11:51AM 39.9744 -79.3072 296° West 426 490 36,000 660 Climbing Cleveland Center
11:52AM 40.0239 -79.4472 295° West 431 496 36,000  Level Cleveland Center
11:53AM 40.0753 -79.5875 296° West 431 496 36,000  Level Cleveland Center
11:54AM 40.1264 -79.7250 296° West 431 496 36,000  Level Cleveland Center
11:55AM 40.1753 -79.8631 295° West 426 490 36,000 -300 Level Cleveland Center
11:56AM 40.2242 -80.0011 295° West 426 490 35,400 -780 Descending Cleveland Center
11:57AM 40.2683 -80.1286 294° West 426 490 34,500 -720 Descending Cleveland Center
11:58AM 40.3189 -80.2728 295° West 426 490 34,000 -300 Descending Cleveland Center
11:59AM 40.3714 -80.4142 296° West 426 490 34,000 -120 Level Cleveland Center
12:00PM 40.4217 -80.5531 295° West 426 490 33,800 -720 Descending Cleveland Center
12:01PM 40.4714 -80.6894 296° West 421 484 32,600 -900 Descending Cleveland Center
12:02PM 40.5214 -80.8317 295° West 421 484 32,000 -300 Descending Cleveland Center
12:03PM 40.5708 -80.9739 295° West 421 484 32,000  Level Cleveland Center
12:04PM 40.6183 -81.1219 293° West 427 491 32,000  Level Cleveland Center
12:05PM 40.6675 -81.2675 294° West 434 499 32,000  Level Cleveland Center
12:06PM 40.7167 -81.4078 295° West 434 499 32,000 -420 Level Cleveland Center
12:07PM 40.7675 -81.5644 293° West 434 499 31,200 -540 Descending Cleveland Center
12:08PM 40.8161 -81.7081 294° West 429 494 31,000 -120 Descending Cleveland Center
12:09PM 40.8228 -81.8644 273° West 418 481 31,000 -420 Level Cleveland Center
12:10PM 40.8294 -82.0156 273° West 418 481 30,200 -1,140 Descending Cleveland Center
12:11PM 40.8378 -82.1694 274° West 423 487 28,800 -1,380 Descending Cleveland Center
12:12PM 40.8858 -82.3133 294° West 418 481 27,500 -1,200 Descending Cleveland Center
12:13PM 40.9400 -82.4414 299° West 435 501 26,400 -1,260 Descending Cleveland Center
12:14PM 41.0022 -82.5833 300° West 450 518 25,000 -1,980 Descending Cleveland Center
12:15PM 41.0583 -82.7144 300° West 436 502 22,500 -2,460 Descending Cleveland Center
12:16PM 41.1103 -82.8319 300° West 391 450 20,100 -2,220 Descending Cleveland Center
12:17PM 41.1581 -82.9439 300° West 360 414 18,100 -1,200 Descending Cleveland Center
12:18PM 41.2078 -83.0589 300° West 360 414 17,800 -1,200 Descending Cleveland Center
12:19PM 41.2569 -83.1822 298° West 355 409 15,700 -2,220 Descending Cleveland Center
12:20PM 41.2967 -83.2778 299° West 345 397 13,400 -2,460 Descending Cleveland Center
12:21PM 41.3400 -83.3764 300° West 330 380 10,800 -2,700 Descending Cleveland Center
12:22PM 41.3772 -83.4722 297° West 313 360 8,000 -2,700 Descending Cleveland Center
12:23PM 41.4125 -83.5597 298° West 288 331 5,500 -2,100 Descending Cleveland Center
12:24PM 41.4564 -83.6364 307° West 271 312 3,900 -1,260 Descending Cleveland Center
12:25PM 41.5025 -83.7081 311° West 259 298 3,000 -660 Descending Cleveland Center
12:26PM 41.5128 -83.7861 280° West 245 282 2,600 -300 Descending Cleveland Center
12:27PM 41.5044 -83.8606 262° West 214 246 2,500 -120 Descending Cleveland Center
12:29PM 41.5833 -83.8000 323° Northwest  Level FlightAware Approximate
12:36PM 41.5868 -83.8078 323° Northwest  Level Estimated
12:37PM 41.5833 -83.8000 323° Northwest  Level FlightAware Approximate
12:38PM 41.5868 -83.8078 323° Northwest  Level Estimated